Katerina L — 3FQL2 — position and weather

sailwx.info

Track history (hours):
 
Tides and Currents Weather Stations Pressure Air Temp Water Temp Dewpoint Dewpoint Depression Visibility Wind Speed Wind Dir Waves Ship Positions

Katerina L

Last reported at 2015-Mar-26 18:23 UTC. Time now 2015-Mar-27 13:19 UTC.
Position N 36°09' E 026°21'.

Length 91 m; draft 5.4 m.

Type: Tanker. MMSI: 356460000.

Date/timePositionNaut miles runAvg speedWind from/ knotsBaromVisibWave heightAir tempDewpointWater temp
2015-Mar-26 18:23N 36°09' E 026°21'2 1.7
2015-Mar-26 17:27N 36°09' E 026°19'2 1.9
2015-Mar-26 16:30N 36°10' E 026°17'1 1.1
2015-Mar-26 15:26N 36°10' E 026°15'1 1.2
2015-Mar-26 14:21N 36°10' E 026°14'1 1.4
2015-Mar-26 13:31N 36°10' E 026°12'2 1.8
2015-Mar-26 12:33N 36°09' E 026°10'2 2.1
2015-Mar-26 11:31N 36°09' E 026°07'3 2.4
2015-Mar-26 10:22N 36°09' E 026°04'2 2.2
2015-Mar-26 09:33N 36°09' E 026°02'3 2.5
2015-Mar-26 08:31N 36°09' E 025°59'3 2.9
2015-Mar-26 07:33N 36°09' E 025°55'3 3.3
2015-Mar-26 06:32N 36°09' E 025°51'3 2.8
2015-Mar-26 05:29N 36°09' E 025°47'2 2.7
2015-Mar-26 04:33N 36°09' E 025°44'3 3.1
2015-Mar-26 03:31N 36°09' E 025°40'7 3.1
2015-Mar-26 01:23N 36°09' E 025°32'4 3.7
2015-Mar-26 00:26N 36°09' E 025°28'3 3.2
2015-Mar-25 23:33N 36°09' E 025°24'3 2.8
2015-Mar-25 22:29N 36°09' E 025°21'2 2.6
2015-Mar-25 21:33N 36°09' E 025°18'2 2.3
2015-Mar-25 20:33N 36°09' E 025°15'3 2.5
2015-Mar-25 19:32N 36°09' E 025°12'3 2.9
2015-Mar-25 18:32N 36°09' E 025°08'3 2.6
2015-Mar-25 17:33N 36°09' E 025°05'3 3.0
2015-Mar-25 16:32N 36°09' E 025°01'5 4.3
2015-Mar-25 15:25N 36°08' E 024°55'  
Track history (hours):
 
Tides and Currents Weather Stations Pressure Air Temp Water Temp Dewpoint Dewpoint Depression Visibility Wind Speed Wind Dir Waves Ship Positions

Katerina L

Last reported at 2015-Mar-26 18:23 UTC. Time now 2015-Mar-27 13:19 UTC.
Position N 36°09' E 026°21'.

Length 91 m; draft 5.4 m.

Type: Tanker. MMSI: 356460000.

Date/timePositionNaut miles runAvg speedWind from/ knotsBaromVisibWave heightAir tempDewpointWater temp
2015-Mar-26 18:23N 36°09' E 026°21'2 1.7
2015-Mar-26 17:27N 36°09' E 026°19'2 1.9
2015-Mar-26 16:30N 36°10' E 026°17'1 1.1
2015-Mar-26 15:26N 36°10' E 026°15'1 1.2
2015-Mar-26 14:21N 36°10' E 026°14'1 1.4
2015-Mar-26 13:31N 36°10' E 026°12'2 1.8
2015-Mar-26 12:33N 36°09' E 026°10'2 2.1
2015-Mar-26 11:31N 36°09' E 026°07'3 2.4
2015-Mar-26 10:22N 36°09' E 026°04'2 2.2
2015-Mar-26 09:33N 36°09' E 026°02'3 2.5
2015-Mar-26 08:31N 36°09' E 025°59'3 2.9
2015-Mar-26 07:33N 36°09' E 025°55'3 3.3
2015-Mar-26 06:32N 36°09' E 025°51'3 2.8
2015-Mar-26 05:29N 36°09' E 025°47'2 2.7
2015-Mar-26 04:33N 36°09' E 025°44'3 3.1
2015-Mar-26 03:31N 36°09' E 025°40'7 3.1
2015-Mar-26 01:23N 36°09' E 025°32'4 3.7
2015-Mar-26 00:26N 36°09' E 025°28'3 3.2
2015-Mar-25 23:33N 36°09' E 025°24'3 2.8
2015-Mar-25 22:29N 36°09' E 025°21'2 2.6
2015-Mar-25 21:33N 36°09' E 025°18'2 2.3
2015-Mar-25 20:33N 36°09' E 025°15'3 2.5
2015-Mar-25 19:32N 36°09' E 025°12'3 2.9
2015-Mar-25 18:32N 36°09' E 025°08'3 2.6
2015-Mar-25 17:33N 36°09' E 025°05'3 3.0
2015-Mar-25 16:32N 36°09' E 025°01'5 4.3
2015-Mar-25 15:25N 36°08' E 024°55'  

Dump ship's entire track history